| time (UTC) | temp C | wind direction | speed KPH | gust KPH | rain 1hr cm | rain 24hr cm | rain mn cm | humidity % | barometer mb |
| 20260903071108 | 20 | 70 | 3.2 | 6.4 | 0.00 | 0.00 | 0.00 | 69 | 1021.4 |
| 20260903064107 | 19 | 66 | 3.2 | 4.8 | 0.00 | 0.00 | 0.00 | 71 | 1021.6 |
| 20260903061108 | 18 | 132 | 1.6 | 6.4 | 0.00 | 0.00 | 0.00 | 70 | 1021.9 |
| 20260903054107 | 17 | 129 | 3.2 | 6.4 | 0.00 | 0.00 | 0.00 | 70 | 1022.2 |
| 20260903051108 | 17 | 170 | 3.2 | 6.4 | 0.00 | 0.00 | 0.00 | 65 | 1022.0 |
| 20260903044107 | 17 | 179 | 4.8 | 6.4 | 0.00 | 0.00 | 0.00 | 65 | 1022.0 |
| 20260903041107 | 17 | 147 | 4.8 | 9.7 | 0.00 | 0.00 | 0.00 | 67 | 1022.1 |
| 20260903031108 | 17 | 268 | 3.2 | 8.0 | 0.00 | 0.00 | 0.00 | 69 | 1022.2 |
| 20260903021107 | 17 | 279 | 3.2 | 9.7 | 0.00 | 0.00 | 0.00 | 64 | 1021.0 |
| 20260903014107 | 18 | 140 | 6.4 | 12.9 | 0.00 | 0.00 | 0.00 | 61 | 1020.8 |
| 20260903011108 | 18 | 142 | 6.4 | 11.3 | 0.00 | 0.00 | 0.00 | 61 | 1020.7 |
| 20260903004108 | 18 | 138 | 6.4 | 11.3 | 0.00 | 0.00 | 0.00 | 65 | 1020.8 |
| 20260903001507 | 18 | 143 | 6.4 | 9.7 | 0.00 | 0.00 | 0.00 | 65 | 1020.7 |
| 20260902234108 | 18 | 139 | 4.8 | 11.3 | 0.00 | 0.00 | 0.00 | 69 | 1021.9 |
| 20260902224108 | 18 | 209 | 3.2 | 6.4 | 0.00 | 0.00 | 0.00 | 70 | 1020.9 |
| 20260902221108 | 18 | 203 | 3.2 | 6.4 | 0.00 | 0.00 | 0.00 | 70 | 1020.9 |
| 20260902214108 | 18 | 227 | 3.2 | 8.0 | 0.00 | 0.00 | 0.00 | 68 | 1020.7 |
| 20260902211108 | 18 | 231 | 3.2 | 8.0 | 0.00 | 0.00 | 0.00 | 67 | 1020.7 |
| 20260902204109 | 19 | 204 | 3.2 | 6.4 | 0.00 | 0.00 | 0.00 | 65 | 1020.5 |
| 20260902201108 | 19 | 215 | 3.2 | 4.8 | 0.00 | 0.00 | 0.00 | 65 | 1020.5 |
| 20260902194108 | 20 | 217 | 3.2 | 6.4 | 0.00 | 0.00 | 0.00 | 64 | 1020.4 |
| 20260902191108 | 20 | 187 | 4.8 | 6.4 | 0.00 | 0.00 | 0.00 | 61 | 1020.3 |
| 20260902184108 | 20 | 208 | 6.4 | 9.7 | 0.00 | 0.00 | 0.00 | 62 | 1019.2 |
| 20260902181108 | 20 | 223 | 8.0 | 11.3 | 0.00 | 0.00 | 0.00 | 61 | 1019.1 |
| 20260902174108 | 21 | 244 | 8.0 | 11.3 | 0.00 | 0.00 | 0.00 | 61 | 1019.1 |
| 20260902171108 | 21 | 257 | 6.4 | 9.7 | 0.00 | 0.00 | 0.00 | 60 | 1019.0 |
| 20260902164108 | 21 | 276 | 6.4 | 14.5 | 0.00 | 0.00 | 0.00 | 59 | 1018.9 |
| 20260902161108 | 22 | 292 | 9.7 | 20.9 | 0.00 | 0.00 | 0.00 | 58 | 1018.8 |
| 20260902154108 | 22 | 292 | 11.3 | 19.3 | 0.00 | 0.00 | 0.00 | 57 | 1018.7 |
| 20260902151108 | 22 | 294 | 9.7 | 19.3 | 0.00 | 0.00 | 0.00 | 56 | 1018.7 |
| 20260902144108 | 22 | 294 | 9.7 | 17.7 | 0.00 | 0.00 | 0.00 | 55 | 1018.6 |
| 20260902141108 | 22 | 301 | 11.3 | 24.1 | 0.00 | 0.00 | 0.00 | 55 | 1018.6 |
| 20260902134107 | 22 | 295 | 12.9 | 22.5 | 0.00 | 0.00 | 0.00 | 55 | 1018.7 |
| 20260902131108 | 22 | 295 | 12.9 | 22.5 | 0.00 | 0.00 | 0.00 | 54 | 1018.8 |
| 20260902124107 | 21 | 296 | 14.5 | 24.1 | 0.00 | 0.00 | 0.00 | 55 | 1019.9 |
| 20260902121108 | 21 | 297 | 14.5 | 24.1 | 0.00 | 0.00 | 0.00 | 56 | 1019.9 |
| 20260902114108 | 22 | 295 | 11.3 | 22.5 | 0.00 | 0.00 | 0.00 | 57 | 1019.8 |
| 20260902111108 | 22 | 303 | 6.4 | 17.7 | 0.00 | 0.00 | 0.00 | 58 | 1019.9 |
| 20260902104108 | 23 | 349 | 4.8 | 11.3 | 0.00 | 0.00 | 0.00 | 54 | 1019.4 |
| 20260902101108 | 23 | 357 | 6.4 | 12.9 | 0.00 | 0.00 | 0.00 | 54 | 1019.5 |
| 20260902094108 | 23 | 360 | 4.8 | 12.9 | 0.00 | 0.00 | 0.00 | 56 | 1020.6 |
| 20260902091107 | 22 | 19 | 4.8 | 9.7 | 0.00 | 0.00 | 0.00 | 62 | 1020.9 |
| 20260902084107 | 21 | 55 | 3.2 | 11.3 | 0.00 | 0.00 | 0.00 | 65 | 1021.2 |
| 20260902081107 | 20 | 37 | 3.2 | 11.3 | 0.00 | 0.00 | 0.00 | 68 | 1021.4 |
| 20260902074108 | 19 | 51 | 4.8 | 12.9 | 0.00 | 0.00 | 0.00 | 70 | 1020.6 |